createdAt,value
2019-01-10T00:00:19.866Z,30.60
2019-01-10T00:02:48.156Z,27.75
2019-01-10T00:05:16.574Z,30.23
2019-01-10T00:07:44.921Z,28.20
2019-01-10T00:10:15.849Z,28.40
2019-01-10T00:12:44.128Z,29.92
2019-01-10T00:15:17.219Z,28.12
2019-01-10T00:17:45.663Z,27.25
2019-01-10T00:20:15.489Z,29.45
2019-01-10T00:22:43.877Z,30.30
2019-01-10T00:25:13.470Z,27.32
2019-01-10T00:27:41.775Z,27.32
2019-01-10T00:30:18.890Z,27.37
2019-01-10T00:32:47.342Z,28.12
2019-01-10T00:35:15.613Z,27.30
2019-01-10T00:37:43.882Z,26.85
2019-01-10T00:40:16.626Z,28.65
2019-01-10T00:42:49.548Z,29.77
2019-01-10T00:45:17.703Z,28.07
2019-01-10T00:47:46.382Z,25.97
2019-01-10T00:50:21.619Z,30.40
2019-01-10T00:52:49.911Z,26.20
2019-01-10T00:55:18.213Z,27.45
2019-01-10T00:57:48.554Z,24.90
2019-01-10T01:00:25.141Z,28.40
2019-01-10T01:02:53.515Z,27.07
2019-01-10T01:05:22.279Z,26.62
2019-01-10T01:07:50.907Z,27.48
2019-01-10T01:10:21.430Z,27.58
2019-01-10T01:12:58.016Z,24.72
2019-01-10T01:15:20.019Z,25.48
2019-01-10T01:17:48.318Z,25.17
2019-01-10T01:20:21.988Z,26.27
2019-01-10T01:22:50.276Z,25.88
2019-01-10T01:25:18.554Z,25.10
2019-01-10T01:27:46.868Z,27.00
2019-01-10T01:30:23.889Z,26.42
2019-01-10T01:32:52.281Z,24.90
2019-01-10T01:35:21.702Z,24.12
2019-01-10T01:37:50.122Z,23.52
2019-01-10T01:40:20.147Z,23.35
2019-01-10T01:42:48.543Z,25.52
2019-01-10T01:45:18.430Z,25.92
2019-01-10T01:47:46.702Z,25.68
2019-01-10T01:50:17.334Z,24.60
2019-01-10T01:52:46.041Z,24.85
2019-01-10T01:55:14.383Z,25.75
2019-01-10T01:57:42.785Z,25.90
2019-01-10T02:00:16.824Z,27.00
2019-01-10T02:02:45.271Z,31.12
2019-01-10T02:05:13.770Z,29.23
2019-01-10T02:07:42.055Z,23.65
2019-01-10T02:10:23.153Z,26.70
2019-01-10T02:12:51.452Z,26.12
2019-01-10T02:15:19.754Z,30.72
2019-01-10T02:17:49.163Z,28.92
2019-01-10T02:20:17.799Z,27.05
2019-01-10T02:22:46.226Z,27.65
2019-01-10T02:25:15.966Z,28.65
2019-01-10T02:27:44.250Z,24.50
2019-01-10T02:30:23.756Z,25.17
2019-01-10T02:32:52.071Z,26.27
2019-01-10T02:35:20.563Z,28.52
2019-01-10T02:37:48.839Z,24.02
2019-01-10T02:40:17.181Z,26.60
2019-01-10T02:42:45.542Z,24.85
2019-01-10T02:45:17.369Z,25.95
2019-01-10T02:47:45.671Z,24.10
2019-01-10T02:50:19.745Z,28.47
2019-01-10T02:52:48.039Z,24.85
2019-01-10T02:55:16.382Z,22.82
2019-01-10T02:57:44.664Z,27.80
2019-01-10T03:00:19.051Z,27.50
2019-01-10T03:02:47.712Z,28.67
2019-01-10T03:05:16.116Z,26.35
2019-01-10T03:07:44.401Z,24.87
2019-01-10T03:10:15.958Z,22.75
2019-01-10T03:12:44.292Z,26.87
2019-01-10T03:15:12.725Z,25.97
2019-01-10T03:17:41.013Z,25.62
2019-01-10T03:20:12.849Z,25.27
2019-01-10T03:22:41.198Z,24.43
2019-01-10T03:25:09.475Z,24.02
2019-01-10T03:27:37.869Z,26.37
2019-01-10T03:30:09.766Z,24.27
2019-01-10T03:32:38.437Z,29.70
2019-01-10T03:35:08.666Z,21.87
2019-01-10T03:37:36.943Z,28.92
2019-01-10T03:40:11.642Z,25.17
2019-01-10T03:42:40.487Z,25.43
2019-01-10T03:45:11.921Z,23.83
2019-01-10T03:47:40.199Z,24.98
2019-01-10T03:50:10.850Z,24.95
2019-01-10T03:52:39.345Z,24.67
2019-01-10T03:55:07.993Z,23.55
2019-01-10T03:57:36.271Z,22.73
2019-01-10T04:00:07.865Z,25.40
2019-01-10T04:02:36.172Z,24.50
2019-01-10T04:05:06.004Z,23.47
2019-01-10T04:07:34.279Z,24.00
2019-01-10T04:10:02.610Z,24.18
2019-01-10T04:12:31.040Z,22.15
2019-01-10T04:14:59.321Z,25.37
2019-01-10T04:17:27.661Z,23.65
2019-01-10T04:19:55.983Z,23.42
2019-01-10T04:22:24.280Z,27.90
2019-01-10T04:24:52.588Z,22.62
2019-01-10T04:27:20.867Z,24.37
2019-01-10T04:29:49.161Z,23.40
2019-01-10T04:32:17.645Z,22.45
2019-01-10T04:34:45.961Z,25.37
2019-01-10T04:37:14.237Z,22.22
2019-01-10T04:39:42.523Z,23.45
2019-01-10T04:42:11.028Z,25.20
2019-01-10T04:44:39.393Z,23.60
2019-01-10T04:47:07.698Z,24.20
2019-01-10T04:49:35.986Z,24.40
2019-01-10T04:52:04.308Z,23.92
2019-01-10T04:54:32.661Z,22.30
2019-01-10T04:57:00.948Z,23.40
2019-01-10T04:59:29.263Z,26.90
2019-01-10T05:01:57.623Z,23.73
2019-01-10T05:04:26.048Z,22.85
2019-01-10T05:06:54.347Z,27.25
2019-01-10T05:09:22.679Z,26.30
2019-01-10T05:11:51.540Z,24.25
2019-01-10T05:14:19.852Z,23.40
2019-01-10T05:16:48.223Z,24.43
2019-01-10T05:19:16.511Z,22.42
2019-01-10T05:21:44.790Z,22.82
2019-01-10T05:24:13.102Z,24.82
2019-01-10T05:26:41.451Z,27.45
2019-01-10T05:29:09.723Z,27.32
2019-01-10T05:31:38.058Z,23.95
2019-01-10T05:34:06.362Z,23.20
2019-01-10T05:36:34.671Z,24.60
2019-01-10T05:39:04.650Z,26.85
2019-01-10T05:41:32.926Z,23.60
2019-01-10T05:44:01.210Z,22.50
2019-01-10T05:46:30.050Z,28.05
2019-01-10T05:48:58.394Z,24.75
2019-01-10T05:51:26.748Z,24.18
2019-01-10T05:53:55.138Z,24.60
2019-01-10T05:56:23.438Z,22.95
2019-01-10T05:58:51.723Z,22.40
2019-01-10T06:01:20.116Z,25.62
2019-01-10T06:03:53.201Z,24.30
2019-01-10T06:06:19.853Z,23.52
2019-01-10T06:08:48.157Z,25.12
2019-01-10T06:11:16.442Z,27.10
2019-01-10T06:13:44.721Z,22.65
2019-01-10T06:16:13.026Z,24.75
2019-01-10T06:18:41.516Z,21.37
2019-01-10T06:21:09.865Z,24.25
2019-01-10T06:23:38.216Z,23.12
2019-01-10T06:26:06.623Z,26.75
2019-01-10T06:28:34.908Z,31.50
2019-01-10T06:31:03.245Z,34.27
2019-01-10T06:33:31.549Z,31.57
2019-01-10T06:35:59.927Z,32.03
2019-01-10T06:38:28.252Z,33.73
2019-01-10T06:40:56.574Z,34.75
2019-01-10T06:43:24.854Z,30.77
2019-01-10T06:45:53.163Z,31.68
2019-01-10T06:48:21.443Z,38.10
2019-01-10T06:50:49.766Z,31.05
2019-01-10T06:53:18.171Z,31.60
2019-01-10T06:55:46.639Z,43.78
2019-01-10T06:58:15.052Z,46.18
2019-01-10T07:00:43.390Z,61.08
2019-01-10T07:03:11.796Z,71.65
2019-01-10T07:05:40.086Z,82.37
2019-01-10T07:08:08.398Z,73.20
2019-01-10T07:10:36.720Z,68.65
2019-01-10T07:13:05.054Z,69.67
2019-01-10T07:15:33.511Z,79.25
2019-01-10T07:18:01.910Z,71.67
2019-01-10T07:20:30.647Z,66.28
2019-01-10T07:22:58.939Z,68.50
2019-01-10T07:25:27.223Z,56.80
2019-01-10T07:27:56.766Z,62.85
2019-01-10T07:30:35.527Z,51.58
2019-01-10T07:32:56.273Z,54.70
2019-01-10T07:35:26.254Z,57.70
2019-01-10T07:37:54.996Z,52.88
2019-01-10T07:40:23.504Z,47.13
2019-01-10T07:42:51.858Z,49.42
2019-01-10T07:45:22.300Z,47.00
2019-01-10T07:47:50.803Z,48.35
2019-01-10T07:50:23.979Z,45.15
2019-01-10T07:52:52.304Z,54.63
2019-01-10T07:55:20.690Z,51.92
2019-01-10T07:57:49.039Z,44.80
2019-01-10T08:00:20.530Z,52.58
2019-01-10T08:02:48.811Z,48.75
2019-01-10T08:05:17.085Z,49.67
2019-01-10T08:07:45.380Z,49.58
2019-01-10T08:10:17.772Z,38.35
2019-01-10T08:12:46.086Z,47.00
2019-01-10T08:15:17.321Z,44.60
2019-01-10T08:17:45.600Z,54.58
2019-01-10T08:20:14.280Z,38.40
2019-01-10T08:22:42.630Z,39.18
2019-01-10T08:25:10.962Z,41.23
2019-01-10T08:27:39.614Z,37.40
2019-01-10T08:30:18.928Z,41.98
2019-01-10T08:32:47.290Z,43.02
2019-01-10T08:35:17.912Z,43.98
2019-01-10T08:37:46.191Z,45.20
2019-01-10T08:40:14.759Z,41.80
2019-01-10T08:42:43.056Z,59.98
2019-01-10T08:45:11.470Z,72.03
2019-01-10T08:47:39.774Z,74.82
2019-01-10T08:50:17.083Z,61.95
2019-01-10T08:52:45.434Z,54.13
2019-01-10T08:55:13.714Z,66.65
2019-01-10T08:57:42.010Z,79.07
2019-01-10T09:00:18.278Z,70.22
2019-01-10T09:02:46.715Z,63.60
2019-01-10T09:05:15.195Z,62.83
2019-01-10T09:07:44.131Z,66.20
2019-01-10T09:10:15.683Z,50.92
2019-01-10T09:12:43.967Z,66.70
2019-01-10T09:15:12.331Z,64.47
2019-01-10T09:17:40.671Z,46.60
2019-01-10T09:20:12.753Z,54.05
2019-01-10T09:22:41.030Z,45.52
2019-01-10T09:25:09.339Z,44.83
2019-01-10T09:27:37.722Z,52.00
2019-01-10T09:30:14.773Z,42.03
2019-01-10T09:32:43.139Z,43.10
2019-01-10T09:35:11.559Z,44.55
2019-01-10T09:37:39.846Z,36.20
2019-01-10T09:40:11.604Z,38.95
2019-01-10T09:42:40.230Z,30.95
2019-01-10T09:45:10.874Z,34.88
2019-01-10T09:47:39.163Z,38.78
2019-01-10T09:50:13.581Z,39.25
2019-01-10T09:52:41.853Z,30.72
2019-01-10T09:55:10.134Z,33.55
2019-01-10T09:57:38.786Z,38.83
2019-01-10T10:00:13.268Z,36.40
2019-01-10T10:02:41.590Z,33.50
2019-01-10T10:05:10.297Z,28.50
2019-01-10T10:07:38.586Z,32.75
2019-01-10T10:10:12.846Z,31.23
2019-01-10T10:12:41.179Z,31.33
2019-01-10T10:15:10.508Z,30.82
2019-01-10T10:17:38.832Z,32.73
2019-01-10T10:20:10.392Z,35.63
2019-01-10T10:22:38.798Z,28.17
2019-01-10T10:25:07.073Z,40.03
2019-01-10T10:27:35.411Z,31.77
2019-01-10T10:30:06.384Z,32.85
2019-01-10T10:32:34.664Z,36.77
2019-01-10T10:35:02.981Z,30.88
2019-01-10T10:37:31.254Z,34.20
2019-01-10T10:39:59.534Z,32.08
2019-01-10T10:42:27.815Z,34.83
2019-01-10T10:44:56.128Z,39.70
2019-01-10T10:47:24.508Z,37.13
2019-01-10T10:49:52.915Z,33.42
2019-01-10T10:52:21.276Z,43.30
2019-01-10T10:54:49.550Z,35.70
2019-01-10T10:57:17.847Z,32.65
2019-01-10T10:59:46.130Z,37.50
2019-01-10T11:02:14.442Z,41.75
2019-01-10T11:04:42.710Z,31.23
2019-01-10T11:07:11.019Z,36.98
2019-01-10T11:09:39.334Z,35.03
2019-01-10T11:12:07.679Z,36.23
2019-01-10T11:14:36.049Z,34.63
2019-01-10T11:17:04.475Z,35.48
2019-01-10T11:19:32.750Z,32.20
2019-01-10T11:22:01.042Z,35.33
2019-01-10T11:24:29.403Z,30.88
2019-01-10T11:26:57.680Z,31.70
2019-01-10T11:29:26.027Z,36.55
2019-01-10T11:31:54.409Z,30.92
2019-01-10T11:34:22.710Z,32.03
2019-01-10T11:36:50.982Z,30.45
2019-01-10T11:39:19.338Z,26.80
2019-01-10T11:41:47.691Z,35.00
2019-01-10T11:44:16.254Z,36.80
2019-01-10T11:46:44.566Z,29.82
2019-01-10T11:49:12.847Z,37.10
2019-01-10T11:51:41.136Z,25.17
2019-01-10T11:54:09.436Z,26.48
2019-01-10T11:56:37.737Z,26.85
2019-01-10T11:59:06.090Z,28.00
2019-01-10T12:01:34.458Z,35.52
2019-01-10T12:04:02.754Z,30.92
2019-01-10T12:06:31.031Z,26.30
2019-01-10T12:08:59.335Z,23.45
2019-01-10T12:11:27.674Z,27.85
2019-01-10T12:13:55.958Z,27.98
2019-01-10T12:16:28.641Z,33.60
2019-01-10T12:18:59.149Z,27.50
2019-01-10T12:21:24.338Z,33.95
2019-01-10T12:23:52.810Z,24.95
2019-01-10T12:26:21.100Z,29.82
2019-01-10T12:28:49.555Z,28.10
2019-01-10T12:31:17.854Z,26.40
2019-01-10T12:33:46.307Z,28.50
2019-01-10T12:36:14.584Z,30.02
2019-01-10T12:38:42.863Z,24.30
2019-01-10T12:41:11.247Z,23.20
2019-01-10T12:43:39.541Z,22.10
2019-01-10T12:46:07.821Z,25.15
2019-01-10T12:48:36.092Z,24.55
2019-01-10T12:51:04.589Z,25.25
2019-01-10T12:53:33.132Z,20.43
2019-01-10T12:56:01.411Z,22.37
2019-01-10T12:58:29.701Z,21.50
2019-01-10T13:00:58.187Z,22.75
2019-01-10T13:03:26.681Z,23.38
2019-01-10T13:05:54.986Z,22.07
2019-01-10T13:08:23.335Z,22.40
2019-01-10T13:10:51.769Z,20.32
2019-01-10T13:13:20.197Z,19.23
2019-01-10T13:15:48.514Z,20.43
2019-01-10T13:18:16.873Z,21.57
2019-01-10T13:20:45.219Z,23.20
2019-01-10T13:23:13.491Z,17.90
2019-01-10T13:25:41.780Z,20.60
2019-01-10T13:28:10.091Z,20.70
2019-01-10T13:30:38.529Z,19.35
2019-01-10T13:33:06.806Z,20.12
2019-01-10T13:35:35.122Z,19.10
2019-01-10T13:38:03.550Z,23.25
2019-01-10T13:40:31.876Z,21.48
2019-01-10T13:43:00.227Z,20.82
2019-01-10T13:45:29.045Z,22.32
2019-01-10T13:47:57.395Z,24.27
2019-01-10T13:50:27.318Z,20.68
2019-01-10T13:52:55.794Z,20.97
2019-01-10T13:55:24.076Z,22.82
2019-01-10T13:57:52.347Z,20.70
2019-01-10T14:00:22.907Z,21.45
2019-01-10T14:02:51.191Z,23.55
2019-01-10T14:05:19.529Z,23.20
2019-01-10T14:07:47.838Z,21.52
2019-01-10T14:10:17.722Z,20.52
2019-01-10T14:12:46.006Z,24.43
2019-01-10T14:15:17.906Z,26.20
2019-01-10T14:17:46.197Z,22.85
2019-01-10T14:20:14.824Z,24.12
2019-01-10T14:22:43.098Z,24.90
2019-01-10T14:25:11.497Z,20.35
2019-01-10T14:27:39.869Z,21.93
2019-01-10T14:30:14.412Z,19.00
2019-01-10T14:32:42.705Z,21.02
2019-01-10T14:35:11.166Z,22.32
2019-01-10T14:37:39.742Z,19.55
2019-01-10T14:40:09.886Z,22.98
2019-01-10T14:42:38.390Z,23.90
2019-01-10T14:45:09.976Z,25.35
2019-01-10T14:47:38.331Z,21.10
2019-01-10T14:50:09.167Z,19.62
2019-01-10T14:52:37.465Z,24.50
2019-01-10T14:55:09.257Z,23.30
2019-01-10T14:57:37.549Z,26.42
2019-01-10T15:00:12.055Z,26.35
2019-01-10T15:02:40.674Z,42.55
2019-01-10T15:05:09.017Z,40.85
2019-01-10T15:07:37.348Z,41.20
2019-01-10T15:10:07.058Z,47.40
2019-01-10T15:12:35.489Z,49.85
2019-01-10T15:15:05.349Z,47.67
2019-01-10T15:17:33.652Z,48.95
2019-01-10T15:20:02.445Z,48.15
2019-01-10T15:22:30.766Z,44.80
2019-01-10T15:24:59.089Z,46.05
2019-01-10T15:27:27.394Z,46.65
2019-01-10T15:29:55.732Z,43.25
2019-01-10T15:32:24.091Z,42.17
2019-01-10T15:34:52.369Z,40.85
2019-01-10T15:37:20.680Z,44.15
2019-01-10T15:39:49.034Z,39.98
2019-01-10T15:42:17.382Z,36.88
2019-01-10T15:44:45.746Z,39.03
2019-01-10T15:47:16.756Z,40.85
2019-01-10T15:49:44.080Z,38.35
2019-01-10T15:52:13.252Z,38.53
2019-01-10T15:54:41.890Z,36.15
2019-01-10T15:57:10.188Z,36.35
2019-01-10T15:59:38.503Z,33.18
2019-01-10T16:02:06.777Z,35.33
2019-01-10T16:04:35.050Z,40.55
2019-01-10T16:07:03.398Z,32.73
2019-01-10T16:09:31.720Z,35.40
2019-01-10T16:12:00.006Z,37.35
2019-01-10T16:14:28.422Z,34.78
2019-01-10T16:16:56.810Z,35.85
2019-01-10T16:19:25.132Z,35.00
2019-01-10T16:21:53.582Z,33.88
2019-01-10T16:24:21.858Z,35.68
2019-01-10T16:26:50.133Z,35.90
2019-01-10T16:29:18.757Z,31.65
2019-01-10T16:31:47.122Z,33.88
2019-01-10T16:34:15.412Z,32.08
2019-01-10T16:36:43.869Z,34.48
2019-01-10T16:39:12.348Z,31.65
2019-01-10T16:41:40.703Z,34.20
2019-01-10T16:44:08.994Z,37.98
2019-01-10T16:46:37.270Z,31.33
2019-01-10T16:49:05.603Z,34.10
2019-01-10T16:51:33.941Z,32.60
2019-01-10T16:54:02.242Z,35.65
2019-01-10T16:56:30.659Z,33.65
2019-01-10T16:58:58.973Z,31.45
2019-01-10T17:01:27.249Z,32.30
2019-01-10T17:03:55.547Z,32.28
2019-01-10T17:06:23.932Z,33.70
2019-01-10T17:08:52.443Z,34.45
2019-01-10T17:11:20.727Z,30.05
2019-01-10T17:13:49.177Z,31.33
2019-01-10T17:16:17.487Z,33.60
2019-01-10T17:18:45.759Z,29.10
2019-01-10T17:21:14.141Z,32.80
2019-01-10T17:23:42.478Z,32.70
2019-01-10T17:26:10.815Z,32.45
2019-01-10T17:28:39.260Z,36.42
2019-01-10T17:31:07.536Z,33.90
2019-01-10T17:33:35.819Z,29.90
2019-01-10T17:36:04.118Z,35.20
2019-01-10T17:38:32.741Z,32.42
2019-01-10T17:41:01.102Z,34.60
2019-01-10T17:43:29.374Z,31.05
2019-01-10T17:45:58.125Z,35.10
2019-01-10T17:48:26.398Z,33.38
2019-01-10T17:50:54.713Z,30.60
2019-01-10T17:53:23.079Z,32.85
2019-01-10T17:55:51.361Z,34.88
2019-01-10T17:58:19.646Z,34.38
2019-01-10T18:00:47.981Z,31.02
2019-01-10T18:03:16.346Z,32.33
2019-01-10T18:05:44.847Z,33.23
2019-01-10T18:08:13.114Z,32.67
2019-01-10T18:10:41.404Z,31.35
2019-01-10T18:13:09.681Z,31.93
2019-01-10T18:15:38.076Z,30.43
2019-01-10T18:18:06.452Z,32.20
2019-01-10T18:20:38.250Z,30.40
2019-01-10T18:23:08.107Z,35.35
2019-01-10T18:25:36.406Z,29.42
2019-01-10T18:28:05.113Z,33.58
2019-01-10T18:30:33.431Z,31.27
2019-01-10T18:33:01.786Z,34.03
2019-01-10T18:35:30.666Z,43.17
2019-01-10T18:37:59.072Z,33.13
2019-01-10T18:40:27.405Z,34.55
2019-01-10T18:42:55.702Z,35.48
2019-01-10T18:45:26.877Z,34.92
2019-01-10T18:47:57.319Z,35.33
2019-01-10T18:50:25.452Z,35.80
2019-01-10T18:52:53.752Z,38.42
2019-01-10T18:55:22.046Z,42.27
2019-01-10T18:57:50.375Z,36.30
2019-01-10T19:00:29.122Z,36.95
2019-01-10T19:02:58.126Z,36.63
2019-01-10T19:05:27.132Z,37.85
2019-01-10T19:07:55.531Z,34.10
2019-01-10T19:10:24.019Z,35.40
2019-01-10T19:12:52.399Z,36.50
2019-01-10T19:15:20.758Z,37.50
2019-01-10T19:17:49.033Z,38.83
2019-01-10T19:20:22.615Z,32.98
2019-01-10T19:22:51.004Z,35.78
2019-01-10T19:25:19.309Z,36.68
2019-01-10T19:27:47.588Z,32.80
2019-01-10T19:30:18.579Z,36.28
2019-01-10T19:32:46.957Z,36.08
2019-01-10T19:35:15.311Z,35.52
2019-01-10T19:37:43.626Z,31.37
2019-01-10T19:40:15.111Z,30.43
2019-01-10T19:42:43.415Z,33.92
2019-01-10T19:45:14.265Z,34.13
2019-01-10T19:47:42.555Z,30.70
2019-01-10T19:50:13.943Z,32.08
2019-01-10T19:52:42.530Z,30.02
2019-01-10T19:55:12.280Z,32.85
2019-01-10T19:57:40.801Z,32.33
2019-01-10T20:00:12.357Z,30.57
2019-01-10T20:02:40.960Z,31.82
2019-01-10T20:05:09.373Z,35.58
2019-01-10T20:07:37.790Z,34.53
2019-01-10T20:10:09.374Z,33.28
2019-01-10T20:12:37.684Z,31.52
2019-01-10T20:15:07.606Z,33.70
2019-01-10T20:17:36.060Z,32.75
2019-01-10T20:20:13.719Z,31.48
2019-01-10T20:22:42.130Z,34.63
2019-01-10T20:25:10.475Z,29.30
2019-01-10T20:27:38.780Z,30.80
2019-01-10T20:30:13.574Z,29.10
2019-01-10T20:32:41.941Z,29.65
2019-01-10T20:35:10.243Z,32.85
2019-01-10T20:37:38.786Z,29.75
2019-01-10T20:40:10.452Z,28.73
2019-01-10T20:42:38.903Z,30.20
2019-01-10T20:45:09.617Z,32.05
2019-01-10T20:47:38.141Z,26.87
2019-01-10T20:50:14.147Z,29.50
2019-01-10T20:52:42.795Z,30.17
2019-01-10T20:55:18.759Z,31.05
2019-01-10T20:57:47.133Z,28.92
2019-01-10T21:00:21.514Z,27.82
2019-01-10T21:02:50.445Z,27.95
2019-01-10T21:05:19.092Z,30.08
2019-01-10T21:07:49.049Z,26.23
2019-01-10T21:10:19.664Z,30.12
2019-01-10T21:12:47.949Z,28.00
2019-01-10T21:15:21.926Z,26.73
2019-01-10T21:17:50.202Z,28.62
2019-01-10T21:20:18.481Z,29.27
2019-01-10T21:22:46.884Z,28.45
2019-01-10T21:25:16.063Z,31.17
2019-01-10T21:27:44.360Z,31.57
2019-01-10T21:30:18.377Z,29.35
2019-01-10T21:32:47.937Z,25.17
2019-01-10T21:35:16.285Z,27.25
2019-01-10T21:37:44.740Z,26.60
2019-01-10T21:40:24.188Z,28.40
2019-01-10T21:42:53.473Z,26.40
2019-01-10T21:45:22.360Z,28.20
2019-01-10T21:47:52.288Z,29.72
2019-01-10T21:50:23.492Z,27.37
2019-01-10T21:52:53.108Z,28.67
2019-01-10T21:55:21.875Z,26.97
2019-01-10T21:57:50.150Z,27.05
2019-01-10T22:00:31.517Z,29.25
2019-01-10T22:03:00.716Z,26.50
2019-01-10T22:05:29.050Z,27.05
2019-01-10T22:07:57.343Z,26.20
2019-01-10T22:10:25.693Z,26.87
2019-01-10T22:12:54.247Z,29.23
2019-01-10T22:15:22.722Z,27.22
2019-01-10T22:17:51.002Z,24.82
2019-01-10T22:20:21.214Z,23.55
2019-01-10T22:22:49.496Z,26.62
2019-01-10T22:25:18.027Z,25.82
2019-01-10T22:27:46.378Z,26.00
2019-01-10T22:30:17.485Z,27.60
2019-01-10T22:32:46.214Z,26.93
2019-01-10T22:35:16.702Z,26.68
2019-01-10T22:37:45.018Z,26.82
2019-01-10T22:40:15.561Z,32.30
2019-01-10T22:42:43.905Z,24.12
2019-01-10T22:45:12.922Z,25.52
2019-01-10T22:47:41.196Z,25.88
2019-01-10T22:50:12.469Z,26.27
2019-01-10T22:52:40.758Z,27.80
2019-01-10T22:55:11.757Z,27.55
2019-01-10T22:57:40.241Z,25.90
2019-01-10T23:00:31.304Z,26.73
2019-01-10T23:03:08.236Z,28.40
2019-01-10T23:05:43.920Z,26.87
2019-01-10T23:08:12.247Z,28.87
2019-01-10T23:10:40.611Z,25.08
2019-01-10T23:13:09.131Z,26.17
2019-01-10T23:15:38.173Z,30.10
2019-01-10T23:18:07.014Z,26.80
2019-01-10T23:20:35.324Z,26.07
2019-01-10T23:23:06.934Z,27.55
2019-01-10T23:25:35.296Z,28.05
2019-01-10T23:28:03.597Z,26.80
2019-01-10T23:30:49.952Z,28.85
2019-01-10T23:33:19.212Z,27.77
2019-01-10T23:35:49.068Z,26.10
2019-01-10T23:38:22.140Z,27.40
2019-01-10T23:40:50.437Z,27.13
2019-01-10T23:43:18.792Z,27.98
2019-01-10T23:45:47.338Z,26.12
2019-01-10T23:48:15.681Z,29.15
2019-01-10T23:50:43.955Z,28.02
2019-01-10T23:53:12.270Z,27.25
2019-01-10T23:55:40.570Z,27.90
2019-01-10T23:58:08.855Z,25.23
